메인 페이지
METAR-TAF:

METAR-TAF

공항 :

누메아 라 톤투타 국제공항, 뉴칼레도니아

위도: 22-01S, 경도: 166-13E, 고도: 16m

현재 날씨관측

예보는 30분 전, 15:30시(UTC)에 발표되었습니다.
북동2kt
온도 23°C
습도 89%
기압 1007 hPa
시정 10km 이상
1500m 미만 상공 구름 및 적란운 없음

METAR: NWWW 191530Z AUTO 05002KT CAVOK 23/21 Q1007 TEMPO 3000 BR

시각: 03:00 (16:00 UTC)

예보

예보는 5 시간 0분 전, 11:00시(UTC)에 발표되었습니다.
예보 대상 시간: 19일 12시부터 20일 12시까지 (UTC)
여러 방향의 바람 2kt
시정 10km 이상
고도 4000ft 상공 구름 보통
확률 40%
19일 14시부터 19일 20시까지 (UTC)
시정: 3000m
박무
일시적
20일 00시부터 20일 06시까지 (UTC)
시정: 4000m
고도 2000ft 상공 구름 보통, 타워링 적운.
소나기
확률 40% :
일시적
20일 00시부터 20일 09시까지 (UTC)
시정: 2000m
고도 2000ft 상공 구름 보통, 적란운.
강한소나기

TAF: NWWW 191100Z 1912/2012 VRB02KT 9999 SCT040 PROB40 1914/1920 3000 BR TEMPO 2000/2006 4000 SHRA SCT020TCU PROB40 TEMPO 2000/2009 2000 +SHRA SCT020CB

4,000개 이상의 공항 관측 자료 및 예보 (METAR 및 TAF 보고).

지도상에서 검색 가능한 기상관측소가 노란 점과 빨간 점으로 표시되어 있습니다.

기상관측소 명을 보려면 표시 위로 마우스를 이동하세요.

날씨 관측과 예보를 보려면 클릭하세요.

지도 변경 : 확대하려면 엑스 표시가 있는 녹색 버튼, 축소하려면 빼기 표시가 있는 녹색 버튼, 다음 페이지의 지도를 보려면 녹색 화살표를 클릭하세요.


METAR-TAF: